KECS/ECS METAR and TAF weather

Enter ICAO airport designator
Station Type Date Time Source
KECS METAR 2019/08/22 09:35 UTC NOAA

KECS 220935Z AUTO 13010G18KT 112V172 10SM CLR 19/12 A3000 RMK AO2


Station Type Date Time Source
KECS Decoded METAR 2019/08/22 09:35 UTC NOAA

Station name not available
Aug 22, 2019 - 05:35 AM EDT / 2019.08.22 0935 UTC
Wind: from the SE (130 degrees) at 12 MPH (10 KT) gusting to 21 MPH (18 KT) (direction variable):0
Visibility: 10 mile(s):0
Sky conditions: clear
Temperature: 66 F (19 C)
Dew Point: 53 F (12 C)
Relative Humidity: 63%
Pressure (altimeter): 30 in. Hg (1015 hPa)
ob: KECS 220935Z AUTO 13010G18KT 112V172 10SM CLR 19/12 A3000 RMK AO2
cycle: 9

Station Type Date Time Source
KECS TAF UTC NOAA

Error!

Example: see airport list